createdAt,value
2017-12-13T00:00:19.674Z,101133.33
2017-12-13T00:01:23.975Z,101136.00
2017-12-13T00:02:28.181Z,101128.98
2017-12-13T00:03:33.028Z,101128.97
2017-12-13T00:04:37.339Z,101134.14
2017-12-13T00:05:41.548Z,101128.50
2017-12-13T00:06:45.856Z,101114.52
2017-12-13T00:07:50.236Z,101123.27
2017-12-13T00:08:55.119Z,101115.81
2017-12-13T00:09:59.314Z,101116.06
2017-12-13T00:11:03.670Z,101109.04
2017-12-13T00:12:08.768Z,101107.17
2017-12-13T00:13:12.998Z,101098.22
2017-12-13T00:14:17.230Z,101100.22
2017-12-13T00:15:22.141Z,101101.64
2017-12-13T00:16:26.789Z,101091.11
2017-12-13T00:17:31.039Z,101088.61
2017-12-13T00:18:35.332Z,101081.64
2017-12-13T00:19:39.645Z,101088.09
2017-12-13T00:20:43.822Z,101083.60
2017-12-13T00:21:48.348Z,101072.75
2017-12-13T00:22:52.757Z,101081.06
2017-12-13T00:23:57.082Z,101078.98
2017-12-13T00:25:01.728Z,101081.73
2017-12-13T00:26:06.482Z,101076.47
2017-12-13T00:27:10.762Z,101074.86
2017-12-13T00:28:15.268Z,101071.68
2017-12-13T00:29:19.498Z,101074.84
2017-12-13T00:30:24.006Z,101072.95
2017-12-13T00:32:41.828Z,101066.97
2017-12-13T00:33:46.019Z,101064.77
2017-12-13T00:34:50.688Z,101052.23
2017-12-13T00:35:55.306Z,101048.63
2017-12-13T00:36:59.548Z,101057.86
2017-12-13T00:38:04.439Z,101053.86
2017-12-13T00:39:15.481Z,101057.55
2017-12-13T00:40:19.735Z,101057.45
2017-12-13T00:41:28.992Z,101052.45
2017-12-13T00:42:33.263Z,101055.19
2017-12-13T00:43:37.437Z,101056.23
2017-12-13T00:44:41.623Z,101054.77
2017-12-13T00:45:47.191Z,101050.27
2017-12-13T00:46:51.736Z,101043.36
2017-12-13T00:47:56.130Z,101038.66
2017-12-13T00:49:00.552Z,101042.62
2017-12-13T00:50:04.376Z,101038.44
2017-12-13T00:51:09.510Z,101038.11
2017-12-13T00:52:13.748Z,101044.67
2017-12-13T00:53:19.132Z,101039.64
2017-12-13T00:54:23.413Z,101043.59
2017-12-13T00:55:27.799Z,101042.06
2017-12-13T00:56:32.212Z,101034.86
2017-12-13T00:57:36.390Z,101032.73
2017-12-13T00:58:40.694Z,101031.86
2017-12-13T00:59:45.251Z,101039.23
2017-12-13T01:00:49.653Z,101028.83
2017-12-13T01:01:53.958Z,101032.57
2017-12-13T01:02:58.237Z,101034.05
2017-12-13T01:04:02.581Z,101034.27
2017-12-13T01:05:06.700Z,101026.34
2017-12-13T01:06:11.270Z,101017.34
2017-12-13T01:07:15.445Z,101015.67
2017-12-13T01:08:19.883Z,101011.67
2017-12-13T01:09:24.152Z,101022.69
2017-12-13T01:10:28.394Z,101016.71
2017-12-13T01:11:32.689Z,101017.31
2017-12-13T01:12:37.168Z,101012.87
2017-12-13T01:13:41.796Z,101010.67
2017-12-13T01:14:46.559Z,101010.44
2017-12-13T01:15:51.235Z,101013.91
2017-12-13T01:16:55.656Z,101013.84
2017-12-13T01:18:00.365Z,101016.87
2017-12-13T01:19:05.175Z,101024.24
2017-12-13T01:20:10.863Z,101017.64
2017-12-13T01:21:15.074Z,101017.56
2017-12-13T01:22:19.487Z,101020.17
2017-12-13T01:23:23.698Z,101022.45
2017-12-13T01:24:32.615Z,101029.39
2017-12-13T01:25:36.857Z,101023.46
2017-12-13T01:26:41.587Z,101012.93
2017-12-13T01:27:46.038Z,101016.38
2017-12-13T01:28:50.274Z,101008.07
2017-12-13T01:29:54.741Z,101011.34
2017-12-13T01:30:59.969Z,101013.95
2017-12-13T01:32:04.579Z,101013.14
2017-12-13T01:33:09.026Z,101017.53
2017-12-13T01:34:14.029Z,101017.62
2017-12-13T01:35:18.509Z,101015.95
2017-12-13T01:36:22.759Z,101012.38
2017-12-13T01:37:27.030Z,101023.77
2017-12-13T01:38:31.171Z,101003.66
2017-12-13T01:39:35.378Z,101014.70
2017-12-13T01:40:39.887Z,101020.89
2017-12-13T01:41:44.138Z,101023.45
2017-12-13T01:42:48.616Z,101009.08
2017-12-13T01:43:53.030Z,101011.28
2017-12-13T01:44:57.263Z,101016.44
2017-12-13T01:46:01.926Z,101006.93
2017-12-13T01:47:06.799Z,101000.56
2017-12-13T01:48:11.161Z,101008.28
2017-12-13T01:49:15.881Z,101009.70
2017-12-13T01:51:45.488Z,101001.14
2017-12-13T01:55:50.197Z,101000.73
2017-12-13T01:56:54.714Z,101003.31
2017-12-13T01:57:59.031Z,100999.14
2017-12-13T01:59:04.061Z,101001.73
2017-12-13T02:00:25.644Z,100997.25
2017-12-13T02:01:37.327Z,100990.68
2017-12-13T02:02:42.324Z,100992.19
2017-12-13T02:03:47.348Z,100991.17
2017-12-13T02:04:52.333Z,100990.79
2017-12-13T02:05:59.173Z,100982.20
2017-12-13T02:07:13.894Z,100983.17
2017-12-13T02:08:24.996Z,100986.48
2017-12-13T02:09:33.530Z,100976.25
2017-12-13T02:10:38.497Z,100973.95
2017-12-13T02:11:42.768Z,100967.45
2017-12-13T02:12:48.546Z,100967.12
2017-12-13T02:13:53.387Z,100963.28
